Time;durP1;ratioP1;P1;durP2;ratioP2;P2;SDS_P1;SDS_P2;PMS_P1;PMS_P2;Temp;Humidity;BMP_temperature;BMP_pressure;BME280_temperature;BME280_humidity;BME280_pressure;Samples;Min_cycle;Max_cycle;Signal;HPM_P1;HPM_P2
2024/01/05 00:00:02;;;;;;;9.90;8.77;;;6.00;1.00;;;;;;4919874;29;20196;-76
2024/01/05 00:02:33;;;;;;;10.63;8.27;;;6.00;1.00;;;;;;4925969;29;20227;-76
2024/01/05 00:05:00;;;;;;;11.73;9.17;;;6.00;1.00;;;;;;4884068;29;20704;-76
2024/01/05 00:07:27;;;;;;;9.97;8.57;;;6.00;1.00;;;;;;4934264;29;20206;-76
2024/01/05 00:09:54;;;;;;;9.30;8.33;;;6.10;1.00;;;;;;4919590;29;20211;-76
2024/01/05 00:12:21;;;;;;;12.37;8.40;;;6.00;1.00;;;;;;4931797;29;20554;-75
2024/01/05 00:14:50;;;;;;;10.03;9.17;;;6.00;1.00;;;;;;4951615;28;20259;-79
2024/01/05 00:17:17;;;;;;;13.87;9.80;;;6.00;1.00;;;;;;4928117;29;20227;-79
2024/01/05 00:19:46;;;;;;;11.17;10.20;;;6.00;19.60;;;;;;4952565;29;20199;-80
2024/01/05 00:22:13;;;;;;;16.23;10.23;;;6.00;99.90;;;;;;4942385;29;20222;-87
2024/01/05 00:24:41;;;;;;;11.97;10.73;;;6.00;1.00;;;;;;4961411;28;20203;-87
2024/01/05 00:27:09;;;;;;;26.43;11.87;;;6.00;1.00;;;;;;4927293;29;20697;-92
2024/01/05 00:29:37;;;;;;;13.30;11.97;;;6.00;99.90;;;;;;4936825;29;20203;-85
2024/01/05 00:32:18;;;;;;;13.00;12.00;;;6.10;1.00;;;;;;4938560;28;20303;-84
2024/01/05 00:34:45;;;;;;;13.63;12.23;;;6.20;99.90;;;;;;4930583;29;20198;-89
2024/01/05 00:37:14;;;;;;;13.07;11.87;;;6.00;99.90;;;;;;4962996;28;20226;-82
2024/01/05 00:39:41;;;;;;;14.40;11.50;;;6.10;1.00;;;;;;4952087;29;20644;-80
2024/01/05 00:42:10;;;;;;;10.60;10.10;;;6.10;1.00;;;;;;4945194;29;20191;-81
2024/01/05 00:44:41;;;;;;;10.90;10.40;;;6.20;1.00;;;;;;4961886;28;20933;-90
2024/01/05 00:47:09;;;;;;;10.60;10.10;;;6.20;1.00;;;;;;4962507;28;20202;-86
2024/01/05 00:49:37;;;;;;;10.40;9.90;;;6.20;78.50;;;;;;4949673;29;20236;-82
2024/01/05 00:52:05;;;;;;;10.07;9.57;;;6.20;1.00;;;;;;4962534;28;20203;-82
2024/01/05 00:54:32;;;;;;;10.40;9.90;;;6.30;1.00;;;;;;4944854;29;20242;-90
2024/01/05 00:56:59;;;;;;;10.20;9.70;;;6.30;71.70;;;;;;4934491;29;20306;-82
2024/01/05 00:59:26;;;;;;;9.90;9.40;;;6.30;99.90;;;;;;4967125;29;20194;-80
2024/01/05 01:01:54;;;;;;;9.80;9.30;;;6.40;99.90;;;;;;4964379;29;20217;-81
2024/01/05 01:04:21;;;;;;;9.90;9.40;;;6.40;65.80;;;;;;4935188;29;20191;-78
2024/01/05 01:07:39;;;;;;;9.77;9.27;;;6.40;99.90;;;;;;4951453;29;20206;-79
2024/01/05 01:10:14;;;;;;;9.87;9.37;;;6.40;99.90;;;;;;4947390;29;20546;-78
2024/01/05 01:12:42;;;;;;;9.60;9.20;;;6.40;99.90;;;;;;4963363;29;20330;-78
2024/01/05 01:15:09;;;;;;;9.30;8.90;;;6.40;99.90;;;;;;4962649;29;20203;-78
2024/01/05 01:17:39;;;;;;;9.50;9.10;;;6.40;99.90;;;;;;4962355;29;20282;-80
2024/01/05 01:20:08;;;;;;;9.40;9.00;;;6.50;99.90;;;;;;4951246;29;20210;-82
2024/01/05 01:22:36;;;;;;;9.80;9.30;;;6.50;99.90;;;;;;4945944;29;20285;-81
2024/01/05 01:25:03;;;;;;;9.60;9.20;;;6.50;99.90;;;;;;4944891;29;20717;-81
2024/01/05 01:27:30;;;;;;;9.30;8.90;;;6.50;99.90;;;;;;4935358;29;20199;-81
2024/01/05 01:29:57;;;;;;;9.10;8.70;;;6.50;99.90;;;;;;4926739;28;20203;-80
2024/01/05 01:32:25;;;;;;;9.20;8.80;;;6.50;99.90;;;;;;4956797;28;20206;-80
2024/01/05 01:34:52;;;;;;;8.90;8.50;;;6.50;99.90;;;;;;4950342;29;20227;-81
2024/01/05 01:37:20;;;;;;;8.60;8.20;;;6.50;99.90;;;;;;4965467;23;20263;-60
2024/01/05 01:39:47;;;;;;;8.20;7.80;;;6.40;99.90;;;;;;4948512;28;20254;-59
2024/01/05 01:42:14;;;;;;;8.70;8.30;;;6.50;99.90;;;;;;4948712;28;20648;-60
2024/01/05 01:44:41;;;;;;;8.40;8.00;;;6.50;99.90;;;;;;4948419;28;20730;-61
2024/01/05 01:47:09;;;;;;;8.20;7.80;;;6.50;99.90;;;;;;4947443;28;20647;-60
2024/01/05 01:49:36;;;;;;;8.60;8.20;;;6.50;99.90;;;;;;4946887;28;20291;-61
2024/01/05 01:52:03;;;;;;;8.20;7.80;;;6.60;99.90;;;;;;4948571;28;20207;-60
2024/01/05 01:54:32;;;;;;;8.40;8.00;;;6.50;99.90;;;;;;4942271;28;20668;-60
2024/01/05 01:57:04;;;;;;;8.80;8.40;;;6.50;99.90;;;;;;4942649;28;20571;-61
2024/01/05 01:59:32;;;;;;;8.20;7.80;;;6.60;99.90;;;;;;4948659;29;20218;-61
2024/01/05 02:01:59;;;;;;;7.80;7.50;;;6.60;99.90;;;;;;4933688;29;20217;-61
2024/01/05 02:04:28;;;;;;;7.40;7.10;;;6.60;99.90;;;;;;4939024;29;20255;-61
2024/01/05 02:06:56;;;;;;;7.40;7.10;;;6.60;99.90;;;;;;4947594;28;20221;-60
2024/01/05 02:09:24;;;;;;;7.60;7.30;;;6.60;99.90;;;;;;4929205;29;20207;-61
2024/01/05 02:11:51;;;;;;;7.40;7.10;;;6.60;99.90;;;;;;4939992;29;20225;-60
2024/01/05 02:14:18;;;;;;;7.40;7.10;;;6.60;99.90;;;;;;4931908;29;20301;-60
2024/01/05 02:16:45;;;;;;;8.00;7.60;;;6.60;99.90;;;;;;4930672;29;20218;-60
2024/01/05 02:19:12;;;;;;;7.33;7.03;;;6.60;99.90;;;;;;4946694;28;20279;-61
2024/01/05 02:21:45;;;;;;;8.00;7.60;;;6.60;99.90;;;;;;4931984;29;20668;-62
2024/01/05 02:24:12;;;;;;;7.50;7.20;;;6.60;99.90;;;;;;4921889;29;20199;-62
2024/01/05 02:26:39;;;;;;;7.63;7.33;;;6.50;99.90;;;;;;4927067;28;20454;-61
2024/01/05 02:29:08;;;;;;;7.70;7.40;;;6.60;99.90;;;;;;4947945;28;20206;-61
2024/01/05 02:31:35;;;;;;;7.53;7.23;;;6.50;99.90;;;;;;4933934;29;20318;-61
2024/01/05 02:34:02;;;;;;;7.40;7.10;;;6.50;99.90;;;;;;4949576;28;20206;-61
2024/01/05 02:36:29;;;;;;;7.13;6.83;;;6.60;99.90;;;;;;4932087;29;20330;-61
2024/01/05 02:38:56;;;;;;;7.60;7.30;;;6.50;99.90;;;;;;4931124;29;20241;-61
2024/01/05 02:41:23;;;;;;;7.60;7.30;;;6.50;99.90;;;;;;4932337;29;20214;-61
2024/01/05 02:43:50;;;;;;;7.70;7.40;;;6.40;99.90;;;;;;4948515;29;20203;-61
2024/01/05 02:46:17;;;;;;;7.80;7.50;;;6.40;99.90;;;;;;4947658;28;20207;-61
2024/01/05 02:48:44;;;;;;;7.53;7.23;;;6.30;99.90;;;;;;4913758;29;20215;-61
2024/01/05 02:51:11;;;;;;;7.67;7.37;;;6.40;99.90;;;;;;4941482;29;20624;-61
2024/01/05 02:53:41;;;;;;;7.50;7.20;;;6.50;99.90;;;;;;4948968;29;20194;-61
2024/01/05 02:56:17;;;;;;;7.20;6.90;;;6.50;99.90;;;;;;4931556;29;20222;-62
2024/01/05 02:58:44;;;;;;;7.30;7.00;;;6.50;99.90;;;;;;4944465;29;20265;-61
2024/01/05 03:05:11;;;;;;;7.20;6.90;;;6.60;99.90;;;;;;4945586;29;20250;-62
2024/01/05 03:07:40;;;;;;;7.30;7.00;;;6.60;99.90;;;;;;4945075;29;20211;-61
2024/01/05 03:10:08;;;;;;;7.20;6.90;;;6.50;99.90;;;;;;4930065;29;20277;-61
2024/01/05 03:12:34;;;;;;;7.40;7.10;;;6.50;99.90;;;;;;4944223;29;20734;-61
2024/01/05 03:15:02;;;;;;;7.40;7.10;;;6.40;99.90;;;;;;4942450;29;20505;-61
2024/01/05 03:17:29;;;;;;;7.10;6.80;;;6.50;99.90;;;;;;4939840;28;20236;-61
2024/01/05 03:19:55;;;;;;;7.20;6.90;;;6.50;99.90;;;;;;4947044;29;20225;-61
2024/01/05 03:22:22;;;;;;;7.10;6.80;;;6.30;99.90;;;;;;4944820;29;20191;-61
2024/01/05 03:24:49;;;;;;;6.93;6.63;;;6.30;99.90;;;;;;4945358;29;20540;-60
2024/01/05 03:27:16;;;;;;;6.80;6.50;;;6.30;99.90;;;;;;4943812;29;20222;-61
2024/01/05 03:29:44;;;;;;;6.90;6.60;;;6.30;99.90;;;;;;4946066;29;20210;-60
2024/01/05 03:32:11;;;;;;;6.90;6.60;;;6.20;99.90;;;;;;4932497;29;20202;-60
2024/01/05 03:34:38;;;;;;;7.00;6.70;;;6.10;99.90;;;;;;4931841;29;20273;-59
2024/01/05 03:37:05;;;;;;;7.00;6.70;;;6.10;99.90;;;;;;4949206;28;20253;-59
2024/01/05 03:39:32;;;;;;;7.00;6.70;;;6.00;99.90;;;;;;4969478;28;20730;-58
2024/01/05 03:42:00;;;;;;;6.90;6.60;;;6.10;99.90;;;;;;4963199;28;20202;-58
2024/01/05 03:44:27;;;;;;;6.70;6.40;;;6.00;99.90;;;;;;4966914;28;20293;-58
2024/01/05 03:46:54;;;;;;;6.80;6.50;;;6.10;99.90;;;;;;4932515;28;20210;-59
2024/01/05 03:49:21;;;;;;;6.80;6.50;;;6.10;99.90;;;;;;4962914;28;20217;-59
2024/01/05 03:51:48;;;;;;;6.83;6.53;;;6.00;99.90;;;;;;4965427;28;20210;-59
2024/01/05 03:54:15;;;;;;;6.80;6.50;;;5.90;99.90;;;;;;4966584;28;20750;-59
2024/01/05 03:56:48;;;;;;;6.80;6.50;;;6.00;99.90;;;;;;4959026;28;20245;-60
2024/01/05 03:59:15;;;;;;;7.00;6.70;;;6.00;99.90;;;;;;4965037;28;20208;-60
2024/01/05 04:01:43;;;;;;;6.87;6.57;;;5.90;99.90;;;;;;4950208;28;20207;-60
2024/01/05 04:04:11;;;;;;;6.90;6.60;;;5.90;99.90;;;;;;4954868;28;20774;-61
2024/01/05 04:06:38;;;;;;;6.83;6.53;;;5.80;99.90;;;;;;4954254;28;20300;-60
2024/01/05 04:09:09;;;;;;;6.97;6.67;;;6.00;99.90;;;;;;4953349;28;20202;-60
2024/01/05 04:11:37;;;;;;;6.80;6.50;;;5.90;99.90;;;;;;4971482;28;20696;-60
2024/01/05 04:14:05;;;;;;;7.10;6.80;;;6.00;99.90;;;;;;4966543;28;20194;-60
2024/01/05 04:16:32;;;;;;;7.00;6.70;;;6.00;99.90;;;;;;4950225;28;20211;-60
2024/01/05 04:18:59;;;;;;;6.97;6.67;;;5.90;99.90;;;;;;4971293;28;20197;-61
2024/01/05 04:21:26;;;;;;;7.03;6.73;;;6.00;99.90;;;;;;4946651;28;20296;-60
2024/01/05 04:23:57;;;;;;;7.00;6.70;;;5.90;99.90;;;;;;4948739;28;20205;-60
2024/01/05 04:26:25;;;;;;;7.30;7.00;;;5.80;99.90;;;;;;4930914;28;20195;-60
2024/01/05 04:28:52;;;;;;;7.50;7.20;;;5.80;99.90;;;;;;4947213;28;20202;-61
2024/01/05 04:31:20;;;;;;;7.30;7.00;;;5.80;99.90;;;;;;4952751;28;20377;-60
2024/01/05 04:33:47;;;;;;;7.20;6.90;;;5.90;99.90;;;;;;4953131;28;20326;-65
2024/01/05 04:36:18;;;;;;;7.63;7.33;;;5.80;99.90;;;;;;4953159;28;20222;-61
2024/01/05 04:38:46;;;;;;;7.60;7.30;;;5.80;99.90;;;;;;4970715;28;20555;-61
2024/01/05 04:41:15;;;;;;;7.50;7.20;;;5.80;99.90;;;;;;4952880;28;20201;-61
2024/01/05 04:43:43;;;;;;;7.20;6.90;;;5.70;99.90;;;;;;4948502;28;20635;-61
2024/01/05 04:46:10;;;;;;;7.30;7.00;;;5.60;99.90;;;;;;4953438;28;20207;-61
2024/01/05 04:48:37;;;;;;;7.30;7.00;;;5.70;99.90;;;;;;4971609;28;20273;-61
2024/01/05 04:51:05;;;;;;;7.10;6.80;;;5.80;99.90;;;;;;4967447;28;20194;-61
2024/01/05 04:53:32;;;;;;;7.40;7.10;;;5.70;99.90;;;;;;4952185;28;20239;-62
2024/01/05 04:55:59;;;;;;;7.33;7.03;;;5.80;99.90;;;;;;4967688;28;20202;-62
2024/01/05 04:58:26;;;;;;;7.40;7.10;;;5.80;99.90;;;;;;4953661;28;20755;-61
2024/01/05 05:00:53;;;;;;;7.50;7.20;;;5.70;99.90;;;;;;4953160;28;20198;-61
2024/01/05 05:03:21;;;;;;;7.27;6.97;;;5.80;99.90;;;;;;4954036;28;20191;-61
2024/01/05 05:05:48;;;;;;;7.13;6.83;;;5.80;99.90;;;;;;4972620;28;20703;-60
2024/01/05 05:08:15;;;;;;;6.80;6.50;;;5.90;99.90;;;;;;4972303;28;20186;-62
2024/01/05 05:10:42;;;;;;;7.20;6.90;;;5.70;99.90;;;;;;4963257;28;20539;-61
2024/01/05 05:13:09;;;;;;;7.00;6.70;;;5.70;99.90;;;;;;4969129;28;20202;-60
2024/01/05 05:15:38;;;;;;;6.60;6.30;;;5.70;99.90;;;;;;4967918;28;20190;-62
2024/01/05 05:18:05;;;;;;;6.90;6.60;;;5.70;99.90;;;;;;4954270;28;20238;-61
2024/01/05 05:20:33;;;;;;;7.10;6.80;;;5.70;99.90;;;;;;4970160;28;20182;-62
2024/01/05 05:23:00;;;;;;;7.07;6.77;;;5.70;99.90;;;;;;4952176;28;20205;-61
2024/01/05 05:25:27;;;;;;;7.30;7.00;;;5.60;99.90;;;;;;4970656;28;20190;-61
2024/01/05 05:27:54;;;;;;;7.20;6.90;;;5.70;99.90;;;;;;4970441;28;20285;-62
2024/01/05 05:30:21;;;;;;;7.07;6.77;;;5.70;99.90;;;;;;4951344;28;20335;-65
2024/01/05 05:32:48;;;;;;;6.90;6.60;;;5.80;99.90;;;;;;4937176;28;20206;-65
2024/01/05 05:35:15;;;;;;;6.90;6.60;;;6.00;99.90;;;;;;4969749;28;20221;-60
2024/01/05 05:37:42;;;;;;;6.60;6.30;;;6.00;99.90;;;;;;4952525;28;20242;-60
2024/01/05 05:40:11;;;;;;;6.63;6.33;;;6.20;99.90;;;;;;4970001;28;20183;-60
2024/01/05 05:42:38;;;;;;;6.80;6.50;;;6.20;99.90;;;;;;4953506;28;20202;-61
2024/01/05 05:45:06;;;;;;;6.80;6.50;;;6.20;99.90;;;;;;4970486;28;20193;-61
2024/01/05 05:47:33;;;;;;;6.60;6.30;;;6.30;99.90;;;;;;4938778;28;20205;-62
2024/01/05 05:50:01;;;;;;;6.70;6.40;;;6.30;99.90;;;;;;4954090;28;20763;-62
2024/01/05 05:52:29;;;;;;;6.80;6.50;;;6.30;99.90;;;;;;4958414;28;20200;-62
2024/01/05 05:54:57;;;;;;;6.80;6.50;;;6.30;99.90;;;;;;4971407;28;20696;-62
2024/01/05 05:57:24;;;;;;;6.60;6.30;;;6.40;99.90;;;;;;4954610;28;20211;-67
2024/01/05 05:59:51;;;;;;;6.73;6.43;;;6.40;99.90;;;;;;4970756;28;20632;-62
2024/01/05 06:02:19;;;;;;;6.70;6.40;;;6.50;99.90;;;;;;4971200;28;20285;-62
2024/01/05 06:04:46;;;;;;;6.93;6.63;;;6.40;99.90;;;;;;4953566;28;20697;-62
2024/01/05 06:07:14;;;;;;;6.70;6.40;;;6.50;99.90;;;;;;4953564;28;20229;-64
2024/01/05 06:09:41;;;;;;;6.60;6.30;;;6.50;99.90;;;;;;4933266;29;20286;-62
2024/01/05 06:12:09;;;;;;;6.67;6.37;;;6.50;99.90;;;;;;4952802;28;20241;-62
2024/01/05 06:14:38;;;;;;;6.73;6.43;;;6.50;99.90;;;;;;4971821;28;20526;-62
2024/01/05 06:17:05;;;;;;;6.70;6.40;;;6.70;99.90;;;;;;4938995;28;20682;-62
2024/01/05 06:19:33;;;;;;;6.50;6.20;;;6.70;99.90;;;;;;4935063;29;20241;-62
2024/01/05 06:22:01;;;;;;;6.60;6.30;;;6.80;99.90;;;;;;4957584;28;20199;-62
2024/01/05 06:24:29;;;;;;;7.10;6.80;;;6.90;99.90;;;;;;4938652;28;20210;-62
2024/01/05 06:26:56;;;;;;;6.77;6.47;;;6.90;99.90;;;;;;4954238;28;20210;-61
2024/01/05 06:29:24;;;;;;;7.00;6.70;;;6.90;99.90;;;;;;4952438;28;20839;-61
2024/01/05 06:31:51;;;;;;;7.07;6.77;;;6.90;99.90;;;;;;4969645;28;20194;-61
2024/01/05 06:34:18;;;;;;;7.57;7.27;;;6.90;99.90;;;;;;4969553;28;20209;-61
2024/01/05 06:36:45;;;;;;;7.50;7.20;;;7.00;99.90;;;;;;4970038;28;20202;-62
2024/01/05 06:39:12;;;;;;;7.60;7.30;;;7.00;99.90;;;;;;4936196;28;20206;-62
2024/01/05 06:41:39;;;;;;;7.50;7.20;;;6.90;99.90;;;;;;4952325;28;20828;-62
2024/01/05 06:44:07;;;;;;;7.60;7.30;;;7.00;99.90;;;;;;4969708;28;20197;-62
2024/01/05 06:46:34;;;;;;;7.30;7.00;;;6.90;99.90;;;;;;4953125;28;20182;-62
2024/01/05 06:49:01;;;;;;;7.50;7.20;;;7.00;99.90;;;;;;4953152;28;20257;-62
2024/01/05 06:51:36;;;;;;;7.00;6.70;;;7.00;99.90;;;;;;4954861;28;20253;-62
2024/01/05 06:54:03;;;;;;;7.13;6.83;;;7.00;99.90;;;;;;4943456;28;20279;-62
2024/01/05 06:56:32;;;;;;;7.20;6.90;;;7.00;99.90;;;;;;4938882;28;20293;-62
2024/01/05 06:59:04;;;;;;;7.10;6.80;;;7.00;99.90;;;;;;4971469;28;20253;-61
2024/01/05 07:01:36;;;;;;;7.60;7.30;;;7.10;99.90;;;;;;4953267;28;20190;-61
2024/01/05 07:04:03;;;;;;;7.60;7.30;;;7.10;99.90;;;;;;4952738;28;20202;-61
2024/01/05 07:06:31;;;;;;;7.63;7.33;;;7.20;99.90;;;;;;4970091;28;20189;-62
2024/01/05 07:08:58;;;;;;;8.20;7.80;;;7.20;1.00;;;;;;4952513;28;20222;-61
2024/01/05 07:11:25;;;;;;;8.70;8.30;;;7.30;1.00;;;;;;4969555;28;20237;-61
2024/01/05 07:13:52;;;;;;;8.40;8.00;;;7.30;99.90;;;;;;4968417;28;20658;-62
2024/01/05 07:16:20;;;;;;;9.00;8.60;;;7.20;99.90;;;;;;4969237;28;20194;-62
2024/01/05 07:18:48;;;;;;;8.87;8.47;;;7.30;1.00;;;;;;4959421;28;20206;-62
2024/01/05 07:21:16;;;;;;;9.10;8.70;;;7.30;99.90;;;;;;4970247;28;20300;-62
2024/01/05 07:23:43;;;;;;;9.10;8.70;;;7.20;1.00;;;;;;4970646;28;20364;-61
2024/01/05 07:26:10;;;;;;;8.60;8.20;;;7.20;99.90;;;;;;4936691;28;20210;-62
2024/01/05 07:28:37;;;;;;;8.40;8.00;;;7.10;1.00;;;;;;4969535;28;20209;-62
2024/01/05 07:31:05;;;;;;;8.50;8.10;;;7.10;99.90;;;;;;4970252;28;20364;-62
2024/01/05 07:33:32;;;;;;;8.40;8.00;;;7.10;99.90;;;;;;4969557;28;20779;-62
2024/01/05 07:36:05;;;;;;;8.30;7.90;;;7.20;1.00;;;;;;4953046;28;20212;-64
2024/01/05 07:38:35;;;;;;;8.30;7.90;;;7.20;1.00;;;;;;4941203;29;20333;-62
2024/01/05 07:41:03;;;;;;;8.13;7.73;;;7.30;99.90;;;;;;4937185;29;20206;-62
2024/01/05 07:43:31;;;;;;;8.30;7.90;;;7.40;99.90;;;;;;4930826;28;20201;-61
2024/01/05 07:46:02;;;;;;;7.70;7.40;;;7.40;1.00;;;;;;4937851;29;20651;-60
2024/01/05 07:48:29;;;;;;;8.20;7.80;;;7.50;1.00;;;;;;4959090;28;20221;-60
2024/01/05 07:50:56;;;;;;;8.13;7.73;;;7.50;1.00;;;;;;4902056;29;20294;-60
2024/01/05 07:53:23;;;;;;;8.60;8.20;;;7.50;1.00;;;;;;4961095;28;20202;-62
2024/01/05 07:55:50;;;;;;;8.57;8.17;;;7.60;1.00;;;;;;4945835;28;20217;-61
2024/01/05 07:58:17;;;;;;;9.10;8.70;;;7.60;1.00;;;;;;4956616;28;20614;-61
2024/01/05 08:00:44;;;;;;;9.10;8.70;;;7.70;1.00;;;;;;4936466;29;20203;-62
2024/01/05 08:03:11;;;;;;;9.00;8.60;;;7.70;1.00;;;;;;4920937;29;20325;-61
2024/01/05 08:05:40;;;;;;;9.13;8.73;;;7.70;1.00;;;;;;4936848;29;20206;-62
2024/01/05 08:08:13;;;;;;;9.40;9.00;;;7.70;1.00;;;;;;4954969;29;20579;-62
2024/01/05 08:10:40;;;;;;;9.60;9.20;;;7.70;1.00;;;;;;4937644;28;20203;-62
2024/01/05 08:13:07;;;;;;;9.60;9.20;;;7.60;1.00;;;;;;4953415;29;20207;-62
2024/01/05 08:15:34;;;;;;;10.27;9.77;;;7.70;1.00;;;;;;4952735;29;20203;-61
2024/01/05 08:18:02;;;;;;;10.00;9.50;;;7.70;1.00;;;;;;4954143;28;20211;-61
2024/01/05 08:20:29;;;;;;;10.10;9.60;;;7.60;1.00;;;;;;4937985;29;20187;-61
2024/01/05 08:23:00;;;;;;;9.70;9.30;;;7.70;1.00;;;;;;4937470;29;20290;-64
2024/01/05 08:25:27;;;;;;;9.90;9.40;;;7.70;1.00;;;;;;4935779;29;20541;-61
2024/01/05 08:27:54;;;;;;;9.83;9.37;;;7.70;1.00;;;;;;4952953;29;20249;-62
2024/01/05 08:30:21;;;;;;;10.00;9.50;;;7.70;1.00;;;;;;4951848;29;20314;-60
2024/01/05 08:32:54;;;;;;;9.60;9.20;;;7.70;1.00;;;;;;4953214;29;20287;-61
2024/01/05 08:35:22;;;;;;;10.30;9.80;;;7.80;1.00;;;;;;4952003;29;20194;-62
2024/01/05 08:37:49;;;;;;;10.13;9.63;;;7.80;1.00;;;;;;4936390;29;20238;-61
2024/01/05 08:40:17;;;;;;;10.53;10.03;;;7.80;1.00;;;;;;4953028;29;20223;-61
2024/01/05 08:42:45;;;;;;;10.60;10.10;;;7.90;1.00;;;;;;4952713;29;20195;-64
2024/01/05 08:45:16;;;;;;;10.40;9.90;;;8.00;1.00;;;;;;4924439;29;20210;-62
2024/01/05 08:47:45;;;;;;;11.00;10.50;;;8.00;1.00;;;;;;4935313;28;20226;-61
2024/01/05 08:50:12;;;;;;;11.17;10.67;;;8.20;1.00;;;;;;4952611;29;20297;-61
2024/01/05 08:52:39;;;;;;;11.40;10.90;;;8.30;1.00;;;;;;4935784;29;20290;-63
2024/01/05 08:55:07;;;;;;;11.57;10.97;;;8.40;1.00;;;;;;4935834;29;20206;-61
2024/01/05 08:57:34;;;;;;;11.77;11.17;;;8.60;1.00;;;;;;4935937;28;20198;-63
2024/01/05 09:00:03;;;;;;;12.10;11.50;;;8.70;1.00;;;;;;4935099;29;20202;-67
2024/01/05 09:02:30;;;;;;;11.93;11.33;;;8.80;1.00;;;;;;4934979;29;20195;-62
2024/01/05 09:04:57;;;;;;;12.60;12.00;;;8.80;1.00;;;;;;4952552;29;20223;-61
2024/01/05 09:07:24;;;;;;;12.63;12.03;;;8.80;1.00;;;;;;4952459;29;20205;-61
2024/01/05 09:09:51;;;;;;;12.87;12.27;;;8.80;1.00;;;;;;4935220;29;20203;-61
2024/01/05 09:12:18;;;;;;;12.60;12.00;;;8.80;1.00;;;;;;4952299;28;20215;-61
2024/01/05 09:14:45;;;;;;;13.30;12.60;;;8.70;99.90;;;;;;4950208;29;20213;-61
2024/01/05 09:17:13;;;;;;;13.20;12.50;;;8.70;99.90;;;;;;4922577;29;20195;-62
2024/01/05 09:19:40;;;;;;;12.90;12.30;;;8.70;99.90;;;;;;4951007;29;20237;-62
2024/01/05 09:22:07;;;;;;;12.60;12.00;;;8.70;99.90;;;;;;4934319;29;20201;-62
2024/01/05 09:24:34;;;;;;;13.13;12.43;;;8.70;99.90;;;;;;4951706;29;20253;-62
2024/01/05 09:27:04;;;;;;;19.40;18.40;;;8.70;99.90;;;;;;4934269;29;20210;-61
2024/01/05 09:29:32;;;;;;;13.00;12.30;;;8.80;99.90;;;;;;4934500;29;20788;-61
2024/01/05 09:32:00;;;;;;;13.17;12.47;;;8.80;99.90;;;;;;4951737;29;20199;-61
2024/01/05 09:34:26;;;;;;;13.03;12.33;;;8.80;99.90;;;;;;4934128;29;20623;-61
2024/01/05 09:36:54;;;;;;;13.10;12.40;;;8.80;99.90;;;;;;4935298;28;20389;-61
2024/01/05 09:39:21;;;;;;;13.20;12.50;;;8.80;99.90;;;;;;4970289;28;20218;-61
2024/01/05 09:41:49;;;;;;;13.10;12.40;;;8.80;99.90;;;;;;4971139;28;20325;-62
2024/01/05 09:44:17;;;;;;;13.03;12.33;;;8.90;99.90;;;;;;4953295;28;20190;-61
2024/01/05 09:46:44;;;;;;;13.17;12.47;;;9.00;99.90;;;;;;4953422;28;20195;-61
2024/01/05 09:49:16;;;;;;;13.40;12.70;;;9.10;99.90;;;;;;4970960;28;20513;-60
2024/01/05 09:51:44;;;;;;;13.67;12.97;;;9.10;99.90;;;;;;4970505;28;20209;-61
2024/01/05 09:54:13;;;;;;;13.60;12.90;;;9.20;99.90;;;;;;4970025;28;20410;-61
2024/01/05 09:56:41;;;;;;;13.77;13.07;;;9.40;99.90;;;;;;4970859;28;20202;-61
2024/01/05 09:59:09;;;;;;;13.73;13.03;;;10.10;99.90;;;;;;4947404;28;20582;-61
2024/01/05 10:01:39;;;;;;;13.53;12.83;;;10.10;99.90;;;;;;4966768;28;20198;-62
2024/01/05 10:04:09;;;;;;;14.10;13.30;;;10.00;99.90;;;;;;4970652;28;20273;-61
2024/01/05 10:06:36;;;;;;;14.17;13.37;;;9.80;99.90;;;;;;4970632;28;20186;-62
2024/01/05 10:09:05;;;;;;;14.27;13.47;;;9.70;99.90;;;;;;4952461;28;20214;-62
2024/01/05 10:11:41;;;;;;;14.30;13.50;;;9.60;99.90;;;;;;4969805;28;20236;-62
2024/01/05 10:14:13;;;;;;;14.50;13.70;;;9.60;99.90;;;;;;4951408;28;20213;-63
2024/01/05 10:16:40;;;;;;;14.83;14.03;;;9.60;99.90;;;;;;4952837;28;20198;-62
2024/01/05 10:19:13;;;;;;;14.80;14.00;;;9.60;99.90;;;;;;4969039;28;20535;-61
2024/01/05 10:21:46;;;;;;;14.70;13.90;;;9.60;99.90;;;;;;4953157;28;20205;-62
2024/01/05 10:24:19;;;;;;;14.67;13.87;;;9.50;99.90;;;;;;4969730;28;20629;-62
2024/01/05 10:27:04;;;;;;;14.77;13.97;;;9.50;99.90;;;;;;4953157;28;20200;-61
2024/01/05 10:29:32;;;;;;;14.90;14.10;;;9.40;99.90;;;;;;4970037;28;20704;-62
2024/01/05 10:32:13;;;;;;;14.97;14.10;;;9.40;99.90;;;;;;4952877;28;20198;-62
2024/01/05 10:34:45;;;;;;;14.60;13.80;;;9.30;99.90;;;;;;4969716;28;20202;-62
2024/01/05 10:37:14;;;;;;;14.90;14.10;;;9.30;99.90;;;;;;4969115;28;20255;-62
2024/01/05 10:39:48;;;;;;;14.63;13.83;;;9.30;99.90;;;;;;4952072;28;20229;-62
2024/01/05 10:42:24;;;;;;;14.30;13.50;;;9.30;99.90;;;;;;4969579;28;20209;-63
2024/01/05 10:44:57;;;;;;;14.40;13.60;;;9.30;99.90;;;;;;4961805;28;20757;-63
2024/01/05 10:47:26;;;;;;;14.30;13.50;;;9.50;99.90;;;;;;4946383;28;20182;-62
2024/01/05 10:49:55;;;;;;;14.50;13.70;;;9.70;99.90;;;;;;4968875;28;20210;-63
2024/01/05 10:52:33;;;;;;;14.17;13.37;;;9.80;99.90;;;;;;4952176;28;20198;-62
2024/01/05 10:55:03;;;;;;;14.27;13.47;;;10.00;99.90;;;;;;4957547;28;20530;-62
2024/01/05 10:57:35;;;;;;;14.23;13.43;;;10.10;99.90;;;;;;4973205;28;20252;-62
2024/01/05 11:00:05;;;;;;;14.10;13.30;;;10.00;99.90;;;;;;4976203;28;20804;-64
2024/01/05 11:02:48;;;;;;;13.93;13.13;;;10.00;99.90;;;;;;4951589;28;20483;-62
2024/01/05 11:05:16;;;;;;;14.10;13.30;;;9.80;99.90;;;;;;4968820;28;20599;-62
2024/01/05 11:07:44;;;;;;;14.10;13.30;;;9.80;99.90;;;;;;4969796;28;20508;-62
2024/01/05 11:10:33;;;;;;;14.03;13.23;;;9.80;99.90;;;;;;4951353;28;20663;-62
2024/01/05 11:13:19;;;;;;;14.30;13.50;;;9.70;99.90;;;;;;4934634;28;20578;-62
2024/01/05 11:16:02;;;;;;;14.30;13.50;;;9.60;99.90;;;;;;4937924;28;20198;-62
2024/01/05 11:18:41;;;;;;;14.17;13.37;;;9.40;99.90;;;;;;4977667;28;20210;-65
2024/01/05 11:21:11;;;;;;;14.10;13.30;;;9.40;99.90;;;;;;4969598;28;20316;-61
2024/01/05 11:23:40;;;;;;;14.30;13.50;;;9.40;99.90;;;;;;4969024;28;20280;-61
2024/01/05 11:26:35;;;;;;;14.37;13.57;;;9.40;99.90;;;;;;4937803;28;20809;-62
2024/01/05 11:29:03;;;;;;;14.30;13.50;;;9.30;99.90;;;;;;4948329;28;20234;-61
2024/01/05 11:31:45;;;;;;;14.10;13.30;;;9.20;99.90;;;;;;4952492;28;20210;-61
2024/01/05 11:34:32;;;;;;;14.00;13.20;;;9.20;99.90;;;;;;4968604;28;20263;-61
2024/01/05 11:37:00;;;;;;;14.00;13.20;;;9.10;99.90;;;;;;4969292;28;20630;-61
2024/01/05 11:39:45;;;;;;;14.10;13.30;;;9.10;99.90;;;;;;4969906;28;20206;-62
2024/01/05 11:42:25;;;;;;;14.10;13.30;;;9.10;99.90;;;;;;4936796;28;20206;-61
2024/01/05 11:44:52;;;;;;;14.20;13.40;;;9.10;99.90;;;;;;4947811;29;20202;-61
2024/01/05 11:47:47;;;;;;;13.90;13.10;;;9.10;99.90;;;;;;4946138;29;20202;-61
2024/01/05 11:50:35;;;;;;;14.10;13.30;;;9.10;99.90;;;;;;4966892;28;20296;-61
2024/01/05 11:53:08;;;;;;;13.97;13.17;;;9.10;99.90;;;;;;4958825;28;20407;-61
2024/01/05 11:55:41;;;;;;;14.10;13.30;;;9.00;99.90;;;;;;4951632;28;20662;-61
2024/01/05 11:58:11;;;;;;;14.30;13.50;;;9.10;99.90;;;;;;4951244;28;20209;-62
2024/01/05 12:00:43;;;;;;;14.20;13.40;;;9.00;99.90;;;;;;4954577;28;20208;-62
2024/01/05 12:03:10;;;;;;;14.27;13.47;;;9.00;99.90;;;;;;4952129;28;20614;-62
2024/01/05 12:05:40;;;;;;;14.10;13.30;;;9.00;99.90;;;;;;4967251;28;20245;-61
2024/01/05 12:08:11;;;;;;;14.20;13.40;;;8.90;99.90;;;;;;4951818;28;20289;-62
2024/01/05 12:10:39;;;;;;;14.20;13.40;;;8.90;99.90;;;;;;4939948;28;20202;-62
2024/01/05 12:13:07;;;;;;;13.90;13.10;;;8.90;99.90;;;;;;4951304;28;20300;-61
2024/01/05 12:15:38;;;;;;;14.40;13.60;;;9.00;99.90;;;;;;4970692;28;20222;-62
2024/01/05 12:18:18;;;;;;;14.30;13.50;;;9.00;99.90;;;;;;4941566;28;20198;-61
2024/01/05 12:21:01;;;;;;;14.40;13.60;;;9.10;99.90;;;;;;4953460;28;20824;-62
2024/01/05 12:23:31;;;;;;;14.23;13.43;;;9.00;99.90;;;;;;4952488;28;20225;-62
2024/01/05 12:26:03;;;;;;;14.50;13.70;;;8.90;99.90;;;;;;4954563;28;20194;-62
2024/01/05 12:28:30;;;;;;;14.43;13.63;;;8.90;99.90;;;;;;4954096;28;20194;-63
2024/01/05 12:30:58;;;;;;;14.23;13.43;;;9.00;99.90;;;;;;4939800;29;20227;-62
2024/01/05 12:33:27;;;;;;;14.30;13.50;;;8.90;99.90;;;;;;4967900;28;20502;-62
2024/01/05 12:35:55;;;;;;;14.27;13.47;;;8.90;99.90;;;;;;4971490;28;20218;-62
2024/01/05 12:38:29;;;;;;;14.50;13.70;;;8.90;99.90;;;;;;4971492;28;20234;-62
2024/01/05 12:41:09;;;;;;;14.37;13.57;;;8.90;99.90;;;;;;4954833;28;20205;-63
2024/01/05 12:43:37;;;;;;;14.37;13.57;;;9.00;99.90;;;;;;4953597;28;20293;-64
2024/01/05 12:46:06;;;;;;;14.27;13.47;;;9.10;99.90;;;;;;4954624;28;20245;-61
2024/01/05 12:48:35;;;;;;;14.30;13.50;;;9.20;99.90;;;;;;4971174;28;20186;-60
2024/01/05 12:51:04;;;;;;;14.10;13.30;;;9.20;99.90;;;;;;4954750;28;20285;-68
2024/01/05 12:53:31;;;;;;;14.13;13.37;;;9.30;99.90;;;;;;4953842;28;20284;-61
2024/01/05 12:56:08;;;;;;;13.80;13.10;;;9.30;99.90;;;;;;4955012;28;20553;-62
2024/01/05 12:58:43;;;;;;;14.30;13.50;;;9.30;99.90;;;;;;4953661;28;20216;-61
2024/01/05 13:01:20;;;;;;;14.20;13.40;;;9.30;99.90;;;;;;4958599;28;20194;-61
2024/01/05 13:03:58;;;;;;;14.00;13.20;;;9.30;99.90;;;;;;4970903;28;20218;-61